Time;durP1;ratioP1;P1;durP2;ratioP2;P2;SDS_P1;SDS_P2;PMS_P1;PMS_P2;Temp;Humidity;BMP_temperature;BMP_pressure;BME280_temperature;BME280_humidity;BME280_pressure;Samples;Min_cycle;Max_cycle;Signal;HPM_P1;HPM_P2
2024/01/10 00:00:13;;;;;;;19.20;8.15;;;-3.80;99.90;;;;;;4183856;28;20073;-81
2024/01/10 00:02:24;;;;;;;15.50;7.00;;;-3.80;99.90;;;;;;4184022;28;20073;-81
2024/01/10 00:04:32;;;;;;;15.48;7.07;;;-4.20;99.90;;;;;;4184407;28;20045;-81
2024/01/10 00:06:36;;;;;;;18.05;7.38;;;-3.20;99.90;;;;;;4184301;28;20101;-81
2024/01/10 00:08:44;;;;;;;14.32;7.03;;;-2.80;99.90;;;;;;4184376;28;20101;-82
2024/01/10 00:11:06;;;;;;;15.88;7.28;;;-3.90;99.90;;;;;;4184048;28;20025;-82
2024/01/10 00:13:16;;;;;;;17.60;7.47;;;-3.90;99.90;;;;;;4183658;28;20042;-81
2024/01/10 00:15:24;;;;;;;19.60;8.13;;;-3.90;99.90;;;;;;4183771;28;20049;-82
2024/01/10 00:17:26;;;;;;;14.60;7.82;;;-3.90;99.90;;;;;;4183910;28;20053;-82
2024/01/10 00:19:35;;;;;;;17.65;7.15;;;-4.20;99.90;;;;;;4184795;28;20116;-82
2024/01/10 00:21:48;;;;;;;18.65;7.90;;;-3.90;99.90;;;;;;4183870;28;20087;-82
2024/01/10 00:24:18;;;;;;;17.48;8.18;;;-2.60;99.90;;;;;;4184432;28;20051;-82
2024/01/10 00:26:19;;;;;;;14.63;7.35;;;-4.80;99.90;;;;;;4183457;28;20032;-82
2024/01/10 00:28:27;;;;;;;19.00;9.07;;;-2.70;99.90;;;;;;4183674;28;20457;-82
2024/01/10 00:30:34;;;;;;;17.02;8.60;;;-4.00;99.90;;;;;;4183610;28;20099;-82
2024/01/10 00:32:45;;;;;;;18.02;9.15;;;-4.50;99.90;;;;;;4180514;28;20041;-82
2024/01/10 00:34:57;;;;;;;20.17;9.27;;;-4.00;99.90;;;;;;4166934;28;20066;-81
2024/01/10 00:36:59;;;;;;;21.63;9.00;;;-4.10;99.90;;;;;;4166929;28;20104;-82
2024/01/10 00:39:07;;;;;;;19.35;9.27;;;-4.00;99.90;;;;;;4168283;28;20041;-81
2024/01/10 00:41:23;;;;;;;16.08;7.95;;;-4.00;99.90;;;;;;4167665;28;20029;-81
2024/01/10 00:43:26;;;;;;;19.65;9.90;;;-3.90;99.90;;;;;;4168154;28;20065;-81
2024/01/10 00:45:48;;;;;;;15.00;8.18;;;-4.20;99.90;;;;;;4168120;28;20046;-81
2024/01/10 00:48:32;;;;;;;15.95;7.95;;;-4.20;99.90;;;;;;4167925;28;20042;-81
2024/01/10 00:50:36;;;;;;;15.73;7.82;;;-4.10;99.90;;;;;;4167678;28;20050;-81
2024/01/10 00:52:40;;;;;;;17.95;9.10;;;-3.50;99.90;;;;;;4167538;28;20026;-81
2024/01/10 00:54:55;;;;;;;18.38;9.52;;;-3.30;99.90;;;;;;4168615;28;20038;-79
2024/01/10 00:57:05;;;;;;;19.80;9.55;;;-4.80;99.90;;;;;;4168943;28;20037;-81
2024/01/10 00:59:15;;;;;;;20.80;9.20;;;-4.20;99.90;;;;;;4169089;28;20018;-81
2024/01/10 01:01:39;;;;;;;19.75;8.45;;;-4.10;99.90;;;;;;4168963;28;20060;-82
2024/01/10 01:03:48;;;;;;;20.08;9.13;;;-4.10;99.90;;;;;;4169030;28;20102;-81
2024/01/10 01:05:57;;;;;;;;;;;-4.20;99.90;;;;;;4168965;28;20037;-82
2024/01/10 01:08:11;;;;;;;27.30;9.15;;;-5.00;99.90;;;;;;4167170;28;19933;-82
2024/01/10 01:10:15;;;;;;;20.83;9.13;;;-4.20;99.90;;;;;;4166515;28;20038;-82
2024/01/10 01:12:21;;;;;;;21.67;9.77;;;-4.80;99.90;;;;;;4166821;28;20042;-82
2024/01/10 01:14:39;;;;;;;24.08;9.35;;;-3.40;99.90;;;;;;4166958;28;20042;-82
2024/01/10 01:16:42;;;;;;;21.88;9.77;;;-3.40;99.90;;;;;;4165544;28;20050;-81
2024/01/10 01:18:56;;;;;;;19.63;10.00;;;-3.00;99.90;;;;;;4150248;28;20049;-81
2024/01/10 01:20:58;;;;;;;22.75;10.32;;;-4.10;99.90;;;;;;4150218;28;20042;-81
2024/01/10 01:23:06;;;;;;;18.73;9.70;;;-3.50;99.90;;;;;;4150812;28;20083;-81
2024/01/10 01:25:08;;;;;;;23.27;10.68;;;-3.40;99.90;;;;;;4153587;28;20034;-82
2024/01/10 01:27:10;;;;;;;23.17;10.98;;;-3.00;99.90;;;;;;4152538;28;20082;-81
2024/01/10 01:29:13;;;;;;;23.77;10.90;;;-2.90;99.90;;;;;;4153682;28;20054;-82
2024/01/10 01:31:20;;;;;;;23.60;11.48;;;-4.30;99.90;;;;;;4153455;28;20097;-81
2024/01/10 01:33:22;;;;;;;24.48;11.68;;;-4.20;99.90;;;;;;4153375;28;20038;-81
2024/01/10 01:35:31;;;;;;;30.40;11.85;;;-4.20;99.90;;;;;;4152805;28;20078;-82
2024/01/10 01:37:43;;;;;;;23.73;11.27;;;-3.50;99.90;;;;;;4153387;28;20077;-82
2024/01/10 01:39:57;;;;;;;25.73;12.25;;;-2.90;99.90;;;;;;4168809;28;20096;-81
2024/01/10 01:41:58;;;;;;;27.90;11.93;;;-3.00;99.90;;;;;;4169109;28;20038;-82
2024/01/10 01:44:01;;;;;;;24.42;11.20;;;-5.20;99.90;;;;;;4169264;28;20068;-82
2024/01/10 01:46:12;;;;;;;22.30;11.38;;;-3.60;99.90;;;;;;4168566;28;20022;-81
2024/01/10 01:48:16;;;;;;;26.33;12.32;;;-4.20;99.90;;;;;;4169321;28;20076;-81
2024/01/10 01:50:27;;;;;;;26.23;11.38;;;-5.30;99.90;;;;;;4169411;28;20052;-81
2024/01/10 01:52:41;;;;;;;24.35;12.10;;;-4.60;99.90;;;;;;4168751;28;20083;-81
2024/01/10 01:54:47;;;;;;;28.13;13.07;;;-3.30;99.90;;;;;;4169199;28;20021;-81
2024/01/10 01:56:51;;;;;;;32.72;12.77;;;-3.60;99.90;;;;;;4168346;28;20053;-82
2024/01/10 01:59:08;;;;;;;26.50;11.48;;;-5.00;99.90;;;;;;4168852;28;20050;-81
2024/01/10 02:01:21;;;;;;;26.13;12.35;;;-2.70;99.90;;;;;;4168502;28;20034;-81
2024/01/10 02:03:28;;;;;;;24.13;11.30;;;-3.80;99.90;;;;;;4169142;28;20101;-82
2024/01/10 02:05:32;;;;;;;27.65;12.15;;;-3.20;99.90;;;;;;4168660;28;20049;-82
2024/01/10 02:07:40;;;;;;;26.13;11.98;;;-4.20;99.90;;;;;;4168822;28;20026;-81
2024/01/10 02:09:52;;;;;;;23.67;11.30;;;-4.20;99.90;;;;;;4168409;28;20076;-82
2024/01/10 02:12:00;;;;;;;26.20;12.00;;;-4.30;99.90;;;;;;4167738;28;20289;-81
2024/01/10 02:14:24;;;;;;;26.33;12.73;;;-3.00;99.90;;;;;;4168028;28;20042;-81
2024/01/10 02:16:53;;;;;;;29.70;11.65;;;-4.20;99.90;;;;;;4168652;28;20042;-81
2024/01/10 02:19:27;;;;;;;26.58;11.73;;;-4.20;99.90;;;;;;4168717;28;20072;-82
2024/01/10 02:21:36;;;;;;;26.77;11.60;;;-3.60;99.90;;;;;;4153236;28;20101;-82
2024/01/10 02:23:45;;;;;;;;;;;-4.20;99.90;;;;;;4169423;28;20046;-82
2024/01/10 02:25:52;;;;;;;25.70;11.40;;;-4.20;99.90;;;;;;4168486;28;20423;-81
2024/01/10 02:27:58;;;;;;;26.23;11.90;;;-4.30;99.90;;;;;;4168240;28;20056;-82
2024/01/10 02:30:26;;;;;;;30.42;12.10;;;-3.30;99.90;;;;;;4168915;28;20050;-81
2024/01/10 02:32:33;;;;;;;26.95;11.93;;;-4.10;99.90;;;;;;4169940;28;20064;-81
2024/01/10 02:34:43;;;;;;;27.73;11.70;;;-3.70;99.90;;;;;;4169291;28;20080;-81
2024/01/10 02:36:49;;;;;;;27.73;11.85;;;-4.20;99.90;;;;;;4168574;28;20038;-81
2024/01/10 02:38:52;;;;;;;26.65;11.10;;;-4.00;99.90;;;;;;4169828;28;20045;-81
2024/01/10 02:41:02;;;;;;;24.02;12.15;;;-4.30;99.90;;;;;;4169848;28;20038;-81
2024/01/10 02:43:17;;;;;;;28.60;12.02;;;-4.20;99.90;;;;;;4169465;28;20092;-81
2024/01/10 02:45:20;;;;;;;26.23;11.75;;;-4.30;99.90;;;;;;4169975;28;20129;-81
2024/01/10 02:47:32;;;;;;;25.83;11.73;;;-4.10;99.90;;;;;;4168799;28;20041;-81
2024/01/10 02:49:36;;;;;;;23.75;11.52;;;-4.90;99.90;;;;;;4169560;28;20051;-81
2024/01/10 02:52:04;;;;;;;26.38;13.20;;;-5.70;99.90;;;;;;4170330;28;20098;-81
2024/01/10 02:56:18;;;;;;;23.98;11.07;;;-4.20;99.90;;;;;;4331219;22;20072;-81
2024/01/10 03:01:13;;;;;;;23.35;11.20;;;-3.50;99.90;;;;;;5103799;22;20035;31
2024/01/10 03:03:15;;;;;;;26.60;11.52;;;;;;;;;;4884978;23;20039;-78
2024/01/10 03:05:23;;;;;;;27.20;12.10;;;-4.30;99.90;;;;;;4169508;28;20076;-82
2024/01/10 03:07:33;;;;;;;25.35;11.75;;;-4.10;99.90;;;;;;4168752;28;20069;-82
2024/01/10 03:09:47;;;;;;;23.92;11.23;;;-3.30;99.90;;;;;;4169545;28;20120;-82
2024/01/10 03:11:49;;;;;;;23.70;11.07;;;-5.50;99.90;;;;;;4169452;28;20113;-82
2024/01/10 03:14:13;;;;;;;24.95;11.43;;;-4.40;99.90;;;;;;4168221;28;20138;-81
2024/01/10 03:16:21;;;;;;;28.15;12.05;;;-5.40;99.90;;;;;;4152452;28;20050;-82
2024/01/10 03:18:42;;;;;;;24.10;11.43;;;-4.40;99.90;;;;;;4168608;28;20081;-81
2024/01/10 03:20:44;;;;;;;26.27;12.73;;;-4.90;99.90;;;;;;4152904;28;20100;-81
2024/01/10 03:22:55;;;;;;;25.55;11.80;;;-3.50;99.90;;;;;;4152452;28;20058;-81
2024/01/10 03:24:56;;;;;;;24.20;10.98;;;-4.30;99.90;;;;;;4152738;28;20081;-81
2024/01/10 03:26:57;;;;;;;27.52;12.80;;;-4.50;99.90;;;;;;4387344;22;20045;-80
2024/01/10 03:29:53;;;;;;;27.27;12.77;;;-3.40;99.90;;;;;;4360010;23;20061;-81
2024/01/10 03:31:54;;;;;;;23.25;11.27;;;-5.50;99.90;;;;;;4386081;22;20040;-80
2024/01/10 03:33:56;;;;;;;25.48;11.27;;;-4.50;99.90;;;;;;4549837;23;20029;-80
2024/01/10 03:35:57;;;;;;;26.60;11.60;;;-3.50;99.90;;;;;;4232727;23;20050;-81
2024/01/10 03:38:06;;;;;;;24.25;11.70;;;-4.80;99.90;;;;;;4186410;28;20089;-81
2024/01/10 03:40:18;;;;;;;;;;;-3.90;99.90;;;;;;4186745;28;20041;-81
2024/01/10 03:42:37;;;;;;;25.35;11.13;;;-4.50;99.90;;;;;;4203530;28;19926;-81
2024/01/10 03:44:43;;;;;;;23.45;11.18;;;-4.60;99.90;;;;;;4185856;28;20041;-81
2024/01/10 03:46:45;;;;;;;24.05;11.82;;;-4.60;99.90;;;;;;4201088;28;20041;-81
2024/01/10 03:49:07;;;;;;;21.02;10.85;;;-4.60;99.90;;;;;;4183015;28;20077;-81
2024/01/10 03:51:21;;;;;;;22.98;11.13;;;-5.20;99.90;;;;;;4183212;28;20041;-81
2024/01/10 03:53:23;;;;;;;24.52;11.65;;;-4.00;99.90;;;;;;4181872;28;20048;-81
2024/01/10 03:55:30;;;;;;;25.10;11.52;;;-3.50;99.90;;;;;;4182831;28;20052;-81
2024/01/10 03:57:32;;;;;;;26.80;11.27;;;-4.10;99.90;;;;;;4182877;28;20072;-81
2024/01/10 03:59:35;;;;;;;26.13;12.40;;;-4.70;99.90;;;;;;4168576;28;20050;-81
2024/01/10 04:01:39;;;;;;;27.30;12.63;;;-4.70;99.90;;;;;;4167043;28;20109;-81
2024/01/10 04:03:45;;;;;;;28.67;12.10;;;-4.70;99.90;;;;;;4150665;28;20049;-81
2024/01/10 04:06:05;;;;;;;24.23;11.73;;;-4.70;99.90;;;;;;4183769;28;20025;-81
2024/01/10 04:08:20;;;;;;;22.85;11.07;;;-4.70;99.90;;;;;;4166236;28;20065;-81
2024/01/10 04:10:23;;;;;;;27.92;11.38;;;-3.90;99.90;;;;;;4183413;28;20041;-81
2024/01/10 04:12:35;;;;;;;26.48;12.38;;;-5.90;99.90;;;;;;4183926;28;20052;-80
2024/01/10 04:14:37;;;;;;;24.27;11.70;;;-4.50;99.90;;;;;;4166543;28;20052;-81
2024/01/10 04:16:40;;;;;;;25.48;11.40;;;-4.40;99.90;;;;;;4184032;28;20045;-81
2024/01/10 04:19:06;;;;;;;26.83;12.27;;;-4.80;99.90;;;;;;4173150;28;20088;-81
2024/01/10 04:21:15;;;;;;;29.08;12.02;;;-4.70;99.90;;;;;;4182764;28;20097;-80
2024/01/10 04:23:25;;;;;;;;;;;-4.20;99.90;;;;;;4183493;28;20057;-81
2024/01/10 04:25:28;;;;;;;28.90;11.45;;;-4.60;99.90;;;;;;4182989;28;19952;-81
2024/01/10 04:27:31;;;;;;;27.35;12.27;;;-4.30;99.90;;;;;;4181236;28;20118;-81
2024/01/10 04:29:38;;;;;;;26.50;12.35;;;-4.70;99.90;;;;;;4155671;28;20038;-81
2024/01/10 04:31:50;;;;;;;27.02;13.63;;;-3.90;99.90;;;;;;4150111;28;20494;-81
2024/01/10 04:34:03;;;;;;;27.10;13.07;;;-4.80;99.90;;;;;;4150604;28;20046;-81
2024/01/10 04:36:04;;;;;;;26.30;11.57;;;-4.70;99.90;;;;;;4166851;28;20061;-81
2024/01/10 04:38:07;;;;;;;25.98;12.95;;;-4.10;99.90;;;;;;4150296;28;20057;-81
2024/01/10 04:40:09;;;;;;;25.73;12.27;;;-3.40;99.90;;;;;;4149994;28;20049;-81
2024/01/10 04:42:44;;;;;;;27.08;13.50;;;-5.70;99.90;;;;;;4150399;28;20061;-81
2024/01/10 04:44:47;;;;;;;31.60;11.55;;;-5.40;99.90;;;;;;4150461;28;20047;-81
2024/01/10 04:47:05;;;;;;;27.23;12.57;;;-4.90;99.90;;;;;;4149992;28;20043;-81
2024/01/10 04:49:18;;;;;;;28.77;11.68;;;-4.80;99.90;;;;;;4166775;28;20081;-81
2024/01/10 04:51:26;;;;;;;25.08;11.95;;;-4.50;99.90;;;;;;4167270;28;20471;-80
2024/01/10 04:53:45;;;;;;;24.00;11.95;;;-5.30;99.90;;;;;;4166970;28;20036;-81
2024/01/10 04:55:54;;;;;;;22.08;10.43;;;-3.90;99.90;;;;;;4166922;28;20072;-81
2024/01/10 04:57:55;;;;;;;26.70;11.95;;;-4.30;99.90;;;;;;4166928;28;20042;-81
2024/01/10 05:00:03;;;;;;;26.38;12.48;;;-4.50;99.90;;;;;;4169776;28;20069;-81
2024/01/10 05:02:06;;;;;;;24.92;11.40;;;-4.80;99.90;;;;;;4170386;28;20048;-81
2024/01/10 05:04:40;;;;;;;27.05;12.38;;;-4.20;99.90;;;;;;4169767;28;20046;-81
2024/01/10 05:06:47;;;;;;;24.27;12.10;;;-4.90;99.90;;;;;;4169847;28;20050;-81
2024/01/10 05:08:58;;;;;;;27.10;12.40;;;-4.80;99.90;;;;;;4153370;28;20026;-81
2024/01/10 05:11:05;;;;;;;26.92;12.40;;;-5.90;99.90;;;;;;4184627;28;20069;-81
2024/01/10 05:13:13;;;;;;;24.58;11.88;;;-4.70;99.90;;;;;;4169801;28;20045;-81
2024/01/10 05:15:24;;;;;;;28.67;12.27;;;-4.80;99.90;;;;;;4185483;28;20060;-81
2024/01/10 05:17:49;;;;;;;28.20;12.05;;;-4.70;99.90;;;;;;4169625;28;20045;-81
2024/01/10 05:20:14;;;;;;;24.38;12.07;;;-5.00;99.90;;;;;;4186964;28;20096;-81
2024/01/10 05:22:43;;;;;;;26.15;10.90;;;-5.00;99.90;;;;;;4183558;28;20049;-81
2024/01/10 05:24:54;;;;;;;28.90;13.25;;;-5.10;99.90;;;;;;4203685;28;20068;-81
2024/01/10 05:27:02;;;;;;;24.20;11.68;;;-3.70;99.90;;;;;;4185452;28;20049;-81
2024/01/10 05:29:15;;;;;;;24.25;11.13;;;-5.10;99.90;;;;;;4186168;28;20048;-81
2024/01/10 05:31:17;;;;;;;28.92;12.90;;;-5.70;99.90;;;;;;4186208;28;20041;-81
2024/01/10 05:33:24;;;;;;;29.02;13.43;;;-4.10;99.90;;;;;;4186417;28;20045;-81
2024/01/10 05:35:28;;;;;;;25.90;12.45;;;-5.00;99.90;;;;;;4186598;28;20058;-81
2024/01/10 05:37:59;;;;;;;28.30;12.63;;;-3.80;99.90;;;;;;4186571;28;20041;-81
2024/01/10 05:40:07;;;;;;;26.58;12.70;;;-5.00;99.90;;;;;;4186295;28;20037;-81
2024/01/10 05:42:10;;;;;;;29.27;13.52;;;-5.10;99.90;;;;;;4186678;28;20026;-81
2024/01/10 05:44:13;;;;;;;23.67;10.85;;;-5.00;99.90;;;;;;4186005;28;20050;-81
2024/01/10 05:46:21;;;;;;;25.80;11.60;;;-6.20;99.90;;;;;;4186593;28;20033;-81
2024/01/10 05:48:29;;;;;;;30.05;12.90;;;-4.80;99.90;;;;;;4185974;28;20042;-81
2024/01/10 05:50:50;;;;;;;27.45;13.40;;;-4.40;99.90;;;;;;4186627;28;20053;-81
2024/01/10 05:53:05;;;;;;;23.90;12.05;;;-5.10;99.90;;;;;;4186553;28;20049;-81
2024/01/10 05:55:19;;;;;;;26.48;12.88;;;-5.00;99.90;;;;;;4186271;28;20072;-81
2024/01/10 05:57:22;;;;;;;30.08;13.43;;;-4.00;99.90;;;;;;4186428;28;20068;-81
2024/01/10 05:59:39;;;;;;;27.33;12.63;;;-4.90;99.90;;;;;;4186624;28;20045;-81
2024/01/10 06:02:04;;;;;;;28.50;13.52;;;-5.90;99.90;;;;;;4172570;28;20038;-81
2024/01/10 06:04:12;;;;;;;26.85;13.13;;;-6.00;99.90;;;;;;4170230;28;20120;-81
2024/01/10 06:06:17;;;;;;;26.57;12.93;;;-4.40;99.90;;;;;;4169302;28;20021;-81
2024/01/10 06:08:28;;;;;;;23.80;12.18;;;-3.80;99.90;;;;;;4169242;28;20300;-81
2024/01/10 06:10:47;;;;;;;30.15;12.45;;;-4.90;99.90;;;;;;4168228;28;20036;-81
2024/01/10 06:13:03;;;;;;;26.90;12.80;;;-4.20;99.90;;;;;;4169444;28;20042;-81
2024/01/10 06:15:08;;;;;;;31.10;14.18;;;-4.60;99.90;;;;;;4169255;28;20057;-81
2024/01/10 06:17:26;;;;;;;25.60;12.48;;;-4.80;99.90;;;;;;4174813;28;20097;-81
2024/01/10 06:19:36;;;;;;;;;;;-4.90;99.90;;;;;;4185235;28;20041;-82
2024/01/10 06:21:38;;;;;;;28.00;11.77;;;-5.90;99.90;;;;;;4201961;28;19920;-82
2024/01/10 06:23:49;;;;;;;27.23;12.27;;;-4.90;99.90;;;;;;4168666;28;20060;-80
2024/01/10 06:25:55;;;;;;;29.23;13.10;;;-4.90;99.90;;;;;;4176368;28;20052;-81
2024/01/10 06:28:06;;;;;;;32.20;13.43;;;-4.90;99.90;;;;;;4185468;28;20080;-81
2024/01/10 06:30:16;;;;;;;29.38;13.75;;;-5.20;99.90;;;;;;4185794;28;20042;-80
2024/01/10 06:32:21;;;;;;;28.65;12.60;;;-5.90;99.90;;;;;;4185403;28;20025;-80
2024/01/10 06:34:24;;;;;;;29.13;13.23;;;-4.20;99.90;;;;;;4185305;28;20050;-81
2024/01/10 06:36:44;;;;;;;32.00;13.85;;;-4.10;99.90;;;;;;4185279;28;20057;-81
2024/01/10 06:39:12;;;;;;;24.15;13.02;;;-5.00;99.90;;;;;;4169491;28;20057;-80
2024/01/10 06:41:29;;;;;;;28.05;13.43;;;-5.50;99.90;;;;;;4185501;28;20041;-81
2024/01/10 06:44:04;;;;;;;25.38;12.90;;;-5.90;99.90;;;;;;4168069;28;20041;-80
2024/01/10 06:46:06;;;;;;;28.65;13.05;;;-5.00;99.90;;;;;;4168463;28;20050;-80
2024/01/10 06:48:09;;;;;;;27.50;13.15;;;-4.20;99.90;;;;;;4185388;28;20077;-80
2024/01/10 06:50:11;;;;;;;24.95;12.57;;;-3.50;99.90;;;;;;4185160;28;20049;-80
2024/01/10 06:52:20;;;;;;;25.55;12.80;;;-5.40;99.90;;;;;;4185740;28;20025;-81
2024/01/10 06:57:41;;;;;;;26.73;11.88;;;-5.20;99.90;;;;;;4185747;28;20037;-81
2024/01/10 06:59:48;;;;;;;27.25;12.60;;;-4.80;99.90;;;;;;4185729;28;20025;-81
2024/01/10 07:02:11;;;;;;;26.10;12.48;;;-4.90;99.90;;;;;;4185967;28;20037;-81
2024/01/10 07:04:27;;;;;;;26.83;12.43;;;-5.30;99.90;;;;;;4185851;28;20037;-80
2024/01/10 07:06:56;;;;;;;26.67;12.05;;;-5.10;99.90;;;;;;4168425;28;20057;-81
2024/01/10 07:09:02;;;;;;;31.65;12.82;;;-5.40;99.90;;;;;;4185502;28;20073;-82
2024/01/10 07:11:12;;;;;;;26.65;13.18;;;-4.00;99.90;;;;;;4185045;28;20482;-82
2024/01/10 07:13:42;;;;;;;28.60;13.20;;;-4.40;99.90;;;;;;4185442;28;20033;-81
2024/01/10 07:15:45;;;;;;;27.05;12.15;;;-5.60;99.90;;;;;;4185013;28;20050;-81
2024/01/10 07:18:06;;;;;;;30.50;13.95;;;-4.00;99.90;;;;;;4184885;28;20050;-81
2024/01/10 07:20:08;;;;;;;28.58;12.32;;;-3.70;99.90;;;;;;4184928;28;20089;-81
2024/01/10 07:22:18;;;;;;;27.55;13.02;;;-5.80;99.90;;;;;;4184116;28;20036;-81
2024/01/10 07:24:19;;;;;;;30.40;12.77;;;-4.30;99.90;;;;;;4184889;28;20061;-81
2024/01/10 07:26:21;;;;;;;29.30;12.93;;;-4.40;99.90;;;;;;4167814;28;20018;-81
2024/01/10 07:28:24;;;;;;;27.15;13.13;;;-3.90;99.90;;;;;;4184781;28;20045;-81
2024/01/10 07:30:26;;;;;;;28.83;13.73;;;-3.80;99.90;;;;;;4185209;28;20029;-82
2024/01/10 07:32:30;;;;;;;27.77;12.07;;;-4.70;99.90;;;;;;4184486;28;20021;-81
2024/01/10 07:34:33;;;;;;;26.92;12.93;;;-4.70;99.90;;;;;;4184534;28;20041;-82
2024/01/10 07:36:45;;;;;;;31.83;13.23;;;-5.80;99.90;;;;;;4183959;28;20054;-81
2024/01/10 07:38:53;;;;;;;30.63;14.10;;;-4.90;99.90;;;;;;4184481;28;20053;-81
2024/01/10 07:41:17;;;;;;;26.73;12.63;;;-6.00;99.90;;;;;;4185118;28;20069;-81
2024/01/10 07:45:29;;;;;;;26.88;11.82;;;-4.90;99.90;;;;;;4506879;22;20280;-81
2024/01/10 07:47:37;;;;;;;32.13;14.43;;;-4.30;99.90;;;;;;4102914;29;20064;-80
2024/01/10 07:49:48;;;;;;;30.23;12.43;;;-4.90;99.90;;;;;;4102084;29;20051;-79
2024/01/10 07:51:54;;;;;;;30.50;14.00;;;-4.90;99.90;;;;;;4103383;29;20057;-80
2024/01/10 07:54:08;;;;;;;29.38;14.10;;;-4.20;99.90;;;;;;4102967;29;20087;-80
2024/01/10 07:56:22;;;;;;;33.03;13.10;;;-4.90;99.90;;;;;;4087701;29;20080;-80
2024/01/10 07:58:36;;;;;;;29.05;13.25;;;-5.80;99.90;;;;;;4087715;29;20080;-80
2024/01/10 08:00:37;;;;;;;29.77;12.15;;;-4.90;99.90;;;;;;4102977;29;20048;-81
2024/01/10 08:02:46;;;;;;;28.05;11.88;;;-5.00;99.90;;;;;;4087429;29;20112;-80
2024/01/10 08:04:53;;;;;;;30.33;13.23;;;-4.90;99.90;;;;;;4103190;29;20059;-81
2024/01/10 08:07:00;;;;;;;31.70;12.40;;;-5.80;99.90;;;;;;4088102;29;20076;-79
2024/01/10 08:09:14;;;;;;;31.33;12.50;;;-4.20;99.90;;;;;;4104928;29;20095;-80
2024/01/10 08:11:26;;;;;;;26.15;10.93;;;-4.10;99.90;;;;;;4104660;29;20075;-81
2024/01/10 08:13:33;;;;;;;30.15;13.02;;;-5.30;99.90;;;;;;4104693;29;20028;-80
2024/01/10 08:18:19;;;;;;;35.60;14.52;;;-4.80;99.90;;;;;;4488550;23;20077;-81
2024/01/10 08:20:30;;;;;;;30.35;12.27;;;-4.80;99.90;;;;;;4151657;28;20062;-86
2024/01/10 08:22:33;;;;;;;30.90;11.60;;;-3.60;99.90;;;;;;4134551;28;20046;-81
2024/01/10 08:24:36;;;;;;;28.73;11.88;;;-4.00;99.90;;;;;;4167442;28;20037;-81
2024/01/10 08:26:40;;;;;;;27.15;11.65;;;-4.50;99.90;;;;;;4159480;28;20031;-81
2024/01/10 08:28:49;;;;;;;27.08;11.52;;;-4.80;99.90;;;;;;4133496;28;20047;-81
2024/01/10 08:30:58;;;;;;;33.15;11.98;;;-4.60;99.90;;;;;;4150614;28;20046;-82
2024/01/10 08:33:27;;;;;;;33.50;11.82;;;-4.10;99.90;;;;;;4149309;28;20047;-82
2024/01/10 08:35:57;;;;;;;40.42;13.73;;;-4.30;99.90;;;;;;4150757;28;20043;-81
2024/01/10 08:38:06;;;;;;;36.95;12.35;;;-4.60;99.90;;;;;;4150562;28;20076;-81
2024/01/10 08:40:45;;;;;;;32.75;12.27;;;-3.20;99.90;;;;;;4150957;28;20061;-83
2024/01/10 08:42:57;;;;;;;32.10;11.63;;;-4.90;99.90;;;;;;4167740;28;20026;-81
2024/01/10 08:45:21;;;;;;;33.83;11.02;;;-4.30;99.90;;;;;;4166171;28;20052;-80
2024/01/10 08:47:32;;;;;;;29.45;9.82;;;-4.40;99.90;;;;;;4166767;28;20050;-81
2024/01/10 08:49:46;;;;;;;34.42;11.20;;;-3.50;99.90;;;;;;4165884;28;20076;-81
2024/01/10 08:51:57;;;;;;;30.25;10.90;;;-3.80;99.90;;;;;;4165003;28;20072;-81
2024/01/10 08:54:01;;;;;;;27.95;9.93;;;-4.60;99.90;;;;;;4162564;28;20038;-81
2024/01/10 08:56:30;;;;;;;31.67;9.93;;;-3.40;99.90;;;;;;4156105;28;20047;-81
2024/01/10 08:58:40;;;;;;;24.75;9.00;;;-3.10;99.90;;;;;;4152309;28;20055;-82
2024/01/10 09:00:44;;;;;;;30.33;10.18;;;-3.00;99.90;;;;;;4166531;28;20544;-82
2024/01/10 09:03:04;;;;;;;31.00;9.68;;;-1.90;99.90;;;;;;4149474;28;20043;-81
2024/01/10 09:05:10;;;;;;;24.63;9.52;;;-2.60;99.90;;;;;;4166289;28;20033;-82
2024/01/10 09:07:27;;;;;;;29.73;9.82;;;-2.20;99.90;;;;;;4165915;28;20041;-81
2024/01/10 09:09:31;;;;;;;24.05;8.30;;;-1.80;99.90;;;;;;4164794;28;20058;-82
2024/01/10 09:11:33;;;;;;;22.17;9.23;;;-0.80;99.90;;;;;;4163102;28;20046;-82
2024/01/10 09:13:34;;;;;;;30.48;9.27;;;0.90;99.90;;;;;;4160790;28;20513;-81
2024/01/10 09:15:36;;;;;;;25.98;9.20;;;0.40;99.90;;;;;;4160536;28;20046;-82
2024/01/10 09:17:37;;;;;;;21.90;8.18;;;1.10;99.90;;;;;;4156893;28;20054;-81
2024/01/10 09:19:39;;;;;;;22.50;8.05;;;1.50;99.90;;;;;;4155089;28;20045;-82
2024/01/10 09:21:41;;;;;;;25.17;8.38;;;3.40;99.90;;;;;;4154554;28;20056;-82
2024/01/10 09:23:41;;;;;;;22.42;8.02;;;3.00;99.90;;;;;;4153350;28;20100;-81
2024/01/10 09:25:42;;;;;;;23.88;9.82;;;4.30;99.90;;;;;;4151917;28;20087;-81
2024/01/10 09:27:44;;;;;;;23.55;8.52;;;5.00;99.90;;;;;;4151497;28;20058;-79
2024/01/10 09:29:45;;;;;;;21.17;7.85;;;6.20;99.90;;;;;;4150495;28;20533;-80
2024/01/10 09:31:46;;;;;;;18.52;7.28;;;6.20;99.90;;;;;;4150836;28;20042;-81
2024/01/10 09:33:46;;;;;;;22.88;8.63;;;6.30;99.90;;;;;;4149585;28;20081;-81
2024/01/10 09:35:47;;;;;;;21.35;9.13;;;7.60;99.90;;;;;;4149484;28;20101;-82
2024/01/10 09:37:49;;;;;;;24.13;9.10;;;7.10;99.90;;;;;;4149927;28;20131;-82
2024/01/10 09:39:50;;;;;;;23.25;9.27;;;6.80;99.90;;;;;;4149667;28;20049;-82
2024/01/10 09:41:51;;;;;;;22.20;8.35;;;7.70;99.90;;;;;;4150037;28;20123;-82
2024/01/10 09:43:52;;;;;;;21.42;8.13;;;7.50;99.90;;;;;;4149474;28;20050;-81
2024/01/10 09:45:57;;;;;;;23.13;8.30;;;8.30;99.90;;;;;;4134602;28;20419;-81
2024/01/10 09:47:59;;;;;;;21.25;8.57;;;;;;;;;;4150622;28;20398;-80
2024/01/10 09:50:02;;;;;;;22.52;8.55;;;7.70;99.90;;;;;;4151786;28;20045;-81
2024/01/10 09:52:04;;;;;;;19.73;7.90;;;7.90;99.90;;;;;;4152656;28;20757;-81
2024/01/10 09:54:05;;;;;;;23.52;8.38;;;7.80;99.90;;;;;;4118222;28;20105;-81
2024/01/10 09:56:08;;;;;;;20.05;8.45;;;8.10;99.90;;;;;;4152147;28;20045;-81
2024/01/10 09:58:10;;;;;;;18.00;7.57;;;7.60;99.90;;;;;;4152417;28;20092;-81
2024/01/10 10:00:11;;;;;;;18.85;7.55;;;8.10;99.90;;;;;;4152549;28;20072;-81
2024/01/10 10:02:12;;;;;;;21.38;8.85;;;6.50;99.90;;;;;;4152189;28;20053;-82
2024/01/10 10:04:16;;;;;;;20.10;8.35;;;7.10;99.90;;;;;;4102948;29;20070;-81
2024/01/10 10:06:18;;;;;;;25.55;9.77;;;7.00;99.90;;;;;;4162210;28;20038;-81
2024/01/10 10:08:22;;;;;;;17.52;7.53;;;7.80;99.90;;;;;;4125110;28;20043;-81
2024/01/10 10:10:29;;;;;;;19.50;8.48;;;7.40;99.90;;;;;;4164240;28;20054;-83
2024/01/10 10:12:53;;;;;;;22.25;9.52;;;6.00;99.90;;;;;;4160767;28;20050;-81
2024/01/10 10:14:54;;;;;;;17.30;7.53;;;5.60;99.90;;;;;;4154739;28;20038;-80
2024/01/10 10:16:55;;;;;;;20.27;8.00;;;5.20;99.90;;;;;;4153091;28;20076;-81
2024/01/10 10:18:58;;;;;;;16.02;7.10;;;6.20;99.90;;;;;;4154008;28;20050;-81
2024/01/10 10:21:25;;;;;;;19.52;7.70;;;5.50;99.90;;;;;;4154741;28;20049;-81
2024/01/10 10:23:26;;;;;;;18.40;8.32;;;4.80;99.90;;;;;;4152083;28;20053;-80
2024/01/10 10:25:30;;;;;;;20.48;7.82;;;4.60;99.90;;;;;;4152186;28;20042;-81
2024/01/10 10:27:32;;;;;;;22.50;8.75;;;4.60;99.90;;;;;;4151964;28;20037;-81
2024/01/10 10:29:32;;;;;;;18.83;8.80;;;4.60;99.90;;;;;;4151819;28;20071;-81
2024/01/10 10:31:33;;;;;;;20.23;8.68;;;4.40;99.90;;;;;;4151545;28;20037;-80
2024/01/10 10:33:34;;;;;;;20.98;8.40;;;4.40;99.90;;;;;;4151812;28;20045;-80
2024/01/10 10:35:35;;;;;;;18.65;8.10;;;4.30;99.90;;;;;;4151286;28;20125;-81
2024/01/10 10:37:35;;;;;;;17.17;7.30;;;4.40;99.90;;;;;;4151925;28;20096;-80
2024/01/10 10:39:37;;;;;;;18.63;8.65;;;4.50;99.90;;;;;;4151310;28;20053;-81
2024/01/10 10:41:38;;;;;;;17.17;7.43;;;5.30;99.90;;;;;;4150564;28;20116;-80
2024/01/10 10:43:42;;;;;;;19.15;7.75;;;4.80;99.90;;;;;;4151239;28;20568;-80
2024/01/10 10:45:48;;;;;;;16.15;7.25;;;4.90;99.90;;;;;;4150844;28;20046;-80
2024/01/10 10:47:50;;;;;;;17.08;7.68;;;5.70;99.90;;;;;;4151545;28;20038;-80
2024/01/10 10:49:54;;;;;;;18.98;7.10;;;5.70;99.90;;;;;;4150261;28;20120;-80
2024/01/10 10:51:59;;;;;;;20.45;7.60;;;4.70;99.90;;;;;;4147968;28;20089;-80
2024/01/10 10:54:00;;;;;;;18.45;7.82;;;5.60;99.90;;;;;;4150462;28;20541;-80
2024/01/10 10:56:04;;;;;;;18.50;7.53;;;4.80;99.90;;;;;;4149209;28;20042;-81
2024/01/10 10:58:05;;;;;;;17.10;8.55;;;4.90;99.90;;;;;;4148624;28;20076;-81
2024/01/10 11:00:07;;;;;;;18.35;7.55;;;5.40;99.90;;;;;;4146963;28;20085;-80
2024/01/10 11:02:10;;;;;;;18.17;7.63;;;5.00;99.90;;;;;;4148942;28;20049;-81
2024/01/10 11:04:13;;;;;;;16.15;7.63;;;5.00;99.90;;;;;;4133213;28;20038;-80
2024/01/10 11:06:14;;;;;;;17.35;7.47;;;5.00;99.90;;;;;;4141813;28;20061;-81
2024/01/10 11:08:19;;;;;;;17.73;7.07;;;5.00;99.90;;;;;;4141158;28;20046;-81
2024/01/10 11:10:33;;;;;;;16.95;6.78;;;4.70;99.90;;;;;;4141195;28;20046;-80
2024/01/10 11:12:47;;;;;;;17.17;7.15;;;5.40;99.90;;;;;;4142994;28;20046;-80
2024/01/10 11:14:50;;;;;;;14.93;6.85;;;4.90;99.90;;;;;;4140256;28;20042;-81